Time;durP1;ratioP1;P1;durP2;ratioP2;P2;SDS_P1;SDS_P2;PMS_P1;PMS_P2;Temp;Humidity;BMP_temperature;BMP_pressure;BME280_temperature;BME280_humidity;BME280_pressure;Samples;Min_cycle;Max_cycle;Signal;HPM_P1;HPM_P2
2021/06/29 00:03:38;;;;;;;3.72;3.35;;;17.00;99.90;;;;;;8205599;28;20229;-63
2021/06/29 00:07:38;;;;;;;3.80;3.33;;;17.00;99.90;;;;;;8294681;28;20073;-64
2021/06/29 00:11:39;;;;;;;4.25;3.55;;;17.00;99.90;;;;;;8227421;28;20034;-64
2021/06/29 00:15:40;;;;;;;4.30;3.15;;;17.10;99.90;;;;;;8227676;28;20027;-64
2021/06/29 00:19:40;;;;;;;5.35;3.50;;;17.00;99.90;;;;;;8227544;28;20084;-64
2021/06/29 00:23:41;;;;;;;4.35;3.95;;;17.00;99.90;;;;;;8214050;28;20027;-64
2021/06/29 00:47:39;;;;;;;6.18;5.05;;;16.90;99.90;;;;;;8227380;28;20057;-64
2021/06/29 00:51:40;;;;;;;5.68;5.07;;;16.80;99.90;;;;;;8226638;28;20631;-64
2021/06/29 00:55:42;;;;;;;4.75;4.30;;;16.90;99.90;;;;;;8197155;28;20024;-64
2021/06/29 00:59:43;;;;;;;5.88;5.28;;;17.00;99.90;;;;;;8194381;28;20157;-64
2021/06/29 01:03:44;;;;;;;6.35;5.55;;;17.00;99.90;;;;;;8204248;28;20031;-64
2021/06/29 01:07:46;;;;;;;5.93;5.32;;;17.00;99.90;;;;;;8292408;28;20031;-63
2021/06/29 01:11:47;;;;;;;10.73;7.13;;;17.00;99.90;;;;;;8225863;28;20480;-63
2021/06/29 01:15:48;;;;;;;9.55;6.97;;;16.90;99.90;;;;;;8225891;28;20027;-63
2021/06/29 01:19:50;;;;;;;8.40;7.50;;;16.90;99.90;;;;;;8225596;28;20561;-63
2021/06/29 01:23:54;;;;;;;7.97;6.97;;;17.00;99.90;;;;;;8210171;28;20019;-63
2021/06/29 01:28:06;;;;;;;8.10;7.30;;;17.00;99.90;;;;;;8193378;28;20019;-63
2021/06/29 01:32:12;;;;;;;8.30;7.47;;;17.00;99.90;;;;;;8193280;28;20031;-63
2021/06/29 01:36:18;;;;;;;9.07;7.50;;;17.10;99.90;;;;;;8222775;28;20109;-63
2021/06/29 01:40:24;;;;;;;7.07;6.38;;;17.00;99.90;;;;;;8291596;28;20111;-63
2021/06/29 01:44:28;;;;;;;7.95;6.25;;;17.00;99.90;;;;;;8225106;28;20489;-64
2021/06/29 01:48:29;;;;;;;8.85;6.75;;;17.00;99.90;;;;;;8224831;28;20023;-63
2021/06/29 01:52:29;;;;;;;6.53;5.82;;;17.00;99.90;;;;;;8220872;28;20400;-63
2021/06/29 01:56:34;;;;;;;6.53;5.93;;;17.10;99.90;;;;;;8192530;29;20390;-63
2021/06/29 02:00:35;;;;;;;8.48;6.10;;;17.10;99.90;;;;;;8191710;29;20026;-63
2021/06/29 02:04:35;;;;;;;7.65;6.05;;;17.00;99.90;;;;;;8274779;28;20062;-63
2021/06/29 02:08:36;;;;;;;7.22;6.45;;;17.00;99.90;;;;;;8223792;28;20070;-63
2021/06/29 02:12:36;;;;;;;8.45;6.55;;;16.80;99.90;;;;;;8224234;28;20041;-63
2021/06/29 02:16:37;;;;;;;7.15;6.13;;;16.80;99.90;;;;;;8224369;28;20129;-64
2021/06/29 02:20:37;;;;;;;7.13;5.70;;;16.90;99.90;;;;;;8290903;28;20061;-63
2021/06/29 02:24:38;;;;;;;6.95;5.80;;;16.80;99.90;;;;;;8203196;28;20110;-64
2021/06/29 02:28:39;;;;;;;7.30;5.82;;;16.80;99.90;;;;;;8191782;28;20074;-64
2021/06/29 02:32:40;;;;;;;6.70;6.00;;;16.70;99.90;;;;;;8258779;28;20054;-64
2021/06/29 02:36:40;;;;;;;6.63;5.97;;;16.80;99.90;;;;;;8223545;28;20031;-64
2021/06/29 02:40:41;;;;;;;5.80;5.30;;;16.80;99.90;;;;;;8223690;28;20508;-63
2021/06/29 02:44:42;;;;;;;6.95;6.25;;;16.70;99.90;;;;;;8223247;28;20114;-64
2021/06/29 02:48:43;;;;;;;7.43;5.55;;;16.80;99.90;;;;;;8222955;28;20031;-64
2021/06/29 02:52:44;;;;;;;8.07;5.30;;;16.90;99.90;;;;;;8217531;28;20139;-64
2021/06/29 02:56:44;;;;;;;6.10;5.50;;;16.90;99.90;;;;;;8191223;28;20081;-64
2021/06/29 03:00:45;;;;;;;6.28;5.18;;;16.90;99.90;;;;;;8191834;29;20035;-64
2021/06/29 03:04:45;;;;;;;7.53;5.47;;;16.90;99.90;;;;;;8209551;28;20027;-64
2021/06/29 03:08:46;;;;;;;6.50;5.82;;;16.90;99.90;;;;;;8222875;28;20038;-64
2021/06/29 03:12:46;;;;;;;13.18;5.72;;;16.80;99.90;;;;;;8223355;28;20055;-64
2021/06/29 03:16:47;;;;;;;6.82;5.72;;;16.90;99.90;;;;;;8223248;28;20069;-64
2021/06/29 03:20:48;;;;;;;5.78;5.22;;;16.90;99.90;;;;;;8223495;28;20023;-63
2021/06/29 03:24:49;;;;;;;5.30;4.55;;;16.80;99.90;;;;;;8193473;28;20024;-64
2021/06/29 03:28:49;;;;;;;5.97;5.20;;;16.90;99.90;;;;;;8159044;28;20032;-63
2021/06/29 03:32:50;;;;;;;6.28;5.65;;;16.80;99.90;;;;;;8164841;28;20034;-64
2021/06/29 03:36:51;;;;;;;6.35;5.50;;;16.90;99.90;;;;;;8176686;28;20032;-63
2021/06/29 03:40:52;;;;;;;6.18;5.45;;;16.90;99.90;;;;;;8172357;28;20035;-63
2021/06/29 03:44:52;;;;;;;5.63;4.95;;;16.90;99.90;;;;;;8191477;28;20035;-64
2021/06/29 03:48:54;;;;;;;8.63;5.38;;;17.00;99.90;;;;;;8195512;28;20034;-63
2021/06/29 03:52:54;;;;;;;6.88;5.28;;;17.00;99.90;;;;;;8194642;28;20416;-65
2021/06/29 03:56:55;;;;;;;6.53;5.13;;;17.00;99.90;;;;;;8262225;28;20020;-64
2021/06/29 04:00:56;;;;;;;6.85;4.65;;;16.90;99.90;;;;;;8195953;28;20027;-64
2021/06/29 04:04:56;;;;;;;5.55;4.78;;;16.90;99.90;;;;;;8189042;28;20042;-64
2021/06/29 04:08:58;;;;;;;4.85;4.45;;;16.90;99.90;;;;;;8244891;28;20066;-64
2021/06/29 04:12:58;;;;;;;6.43;4.82;;;17.00;99.90;;;;;;8190536;28;20065;-63
2021/06/29 04:16:59;;;;;;;3.92;3.28;;;16.90;99.90;;;;;;8261342;28;20035;-64
2021/06/29 04:21:00;;;;;;;3.63;3.33;;;17.00;99.90;;;;;;8195255;28;20054;-64
2021/06/29 04:25:01;;;;;;;3.72;3.33;;;16.90;99.90;;;;;;8187231;28;20036;-63
2021/06/29 04:29:02;;;;;;;3.55;3.00;;;17.00;99.90;;;;;;8163240;28;20028;-64
2021/06/29 04:33:03;;;;;;;2.80;2.60;;;17.10;99.90;;;;;;8173880;28;20808;-64
2021/06/29 04:37:04;;;;;;;2.88;2.42;;;17.00;99.90;;;;;;8240821;28;20047;-64
2021/06/29 04:41:04;;;;;;;4.20;2.70;;;16.80;99.90;;;;;;8170353;28;20039;-69
2021/06/29 04:45:05;;;;;;;2.67;2.40;;;16.70;99.90;;;;;;8162745;28;20037;-69
2021/06/29 04:49:06;;;;;;;2.75;2.03;;;16.60;99.90;;;;;;8227972;28;20409;-69
2021/06/29 04:53:06;;;;;;;2.30;2.10;;;16.50;99.90;;;;;;8170448;28;20115;-69
2021/06/29 04:57:07;;;;;;;3.95;2.10;;;16.50;99.90;;;;;;8170486;28;20039;-69
2021/06/29 05:01:08;;;;;;;2.45;2.25;;;16.40;99.90;;;;;;8251123;28;20042;-71
2021/06/29 05:05:10;;;;;;;3.08;2.28;;;16.70;99.90;;;;;;8177155;28;20047;-70
2021/06/29 05:09:10;;;;;;;2.20;2.00;;;16.80;99.90;;;;;;8177926;28;20042;-71
2021/06/29 05:13:11;;;;;;;2.38;2.17;;;17.10;99.90;;;;;;8190751;28;20028;-70
2021/06/29 05:17:11;;;;;;;3.58;2.38;;;17.10;99.90;;;;;;8247271;28;20035;-71
2021/06/29 05:21:12;;;;;;;3.70;1.98;;;17.00;99.90;;;;;;8260030;28;20027;-70
2021/06/29 05:25:13;;;;;;;4.20;1.90;;;17.10;99.90;;;;;;8259289;28;20035;-60
2021/06/29 05:29:13;;;;;;;3.25;2.00;;;16.80;99.90;;;;;;8165594;28;20028;-60
2021/06/29 05:33:18;;;;;;;4.00;2.15;;;16.70;99.90;;;;;;8181710;28;20524;-60
2021/06/29 05:37:18;;;;;;;3.70;2.10;;;16.80;99.90;;;;;;8224993;28;20484;-60
2021/06/29 05:41:19;;;;;;;3.50;2.38;;;16.70;99.90;;;;;;8207991;28;20078;-60
2021/06/29 05:45:19;;;;;;;3.90;2.22;;;16.60;99.90;;;;;;8214451;28;20515;-60
2021/06/29 05:49:20;;;;;;;2.42;2.22;;;16.70;99.90;;;;;;8280152;28;20035;-61
2021/06/29 05:53:21;;;;;;;3.88;2.17;;;16.60;99.90;;;;;;8204809;28;20451;-60
2021/06/29 05:57:21;;;;;;;2.80;2.30;;;16.80;99.90;;;;;;8167442;28;20023;-60
2021/06/29 06:01:22;;;;;;;2.63;2.10;;;16.90;99.90;;;;;;8177400;28;20032;-60
2021/06/29 06:05:23;;;;;;;2.47;2.22;;;17.00;99.90;;;;;;8185621;28;20085;-61
2021/06/29 06:09:24;;;;;;;3.60;2.28;;;17.10;99.90;;;;;;8170335;28;20023;-59
2021/06/29 06:13:24;;;;;;;3.65;2.45;;;17.10;99.90;;;;;;8176300;29;20027;-60
2021/06/29 06:17:26;;;;;;;4.03;2.72;;;17.10;99.90;;;;;;8174956;29;20111;-61
2021/06/29 06:21:27;;;;;;;5.78;3.10;;;17.10;99.90;;;;;;8249543;28;20092;-60
2021/06/29 06:25:28;;;;;;;3.45;2.42;;;17.00;99.90;;;;;;8175913;28;20513;-60
2021/06/29 06:29:29;;;;;;;4.28;2.72;;;16.90;99.90;;;;;;8178047;28;20047;-60
2021/06/29 06:33:29;;;;;;;4.43;3.00;;;16.80;99.90;;;;;;8180351;28;20035;-60
2021/06/29 06:37:30;;;;;;;4.38;2.70;;;16.80;99.90;;;;;;8175174;28;20026;-61
2021/06/29 06:41:30;;;;;;;3.85;2.78;;;17.00;99.90;;;;;;8189158;28;20042;-60
2021/06/29 06:45:31;;;;;;;2.45;2.17;;;17.70;99.90;;;;;;8191161;28;20047;-60
2021/06/29 06:49:32;;;;;;;5.28;2.50;;;18.10;99.90;;;;;;8190807;28;20027;-60
2021/06/29 06:53:33;;;;;;;2.15;1.88;;;18.50;99.90;;;;;;8189833;28;20106;-60
2021/06/29 06:57:34;;;;;;;2.13;1.92;;;18.80;99.90;;;;;;8191118;28;20450;-60
2021/06/29 07:01:38;;;;;;;5.80;1.90;;;18.90;99.90;;;;;;8175618;28;20519;-60
2021/06/29 07:05:38;;;;;;;1.70;1.60;;;18.90;99.90;;;;;;8185809;28;20035;-60
2021/06/29 07:09:40;;;;;;;1.50;1.40;;;18.90;99.90;;;;;;8180307;28;20059;-61
2021/06/29 07:13:41;;;;;;;2.53;1.90;;;19.00;99.90;;;;;;8166048;28;20669;-60
2021/06/29 07:17:42;;;;;;;1.92;1.50;;;19.10;99.90;;;;;;8185470;28;20019;-61
2021/06/29 07:21:42;;;;;;;1.77;1.38;;;19.30;99.90;;;;;;8261645;28;20049;-66
2021/06/29 07:25:43;;;;;;;1.60;1.33;;;19.40;99.90;;;;;;8196856;28;20038;-66
2021/06/29 07:29:43;;;;;;;1.40;1.30;;;19.50;99.90;;;;;;8194416;28;20093;-67
2021/06/29 07:33:48;;;;;;;2.58;1.27;;;19.50;99.90;;;;;;8195217;28;20019;-67
2021/06/29 07:37:49;;;;;;;2.15;1.02;;;20.00;99.90;;;;;;8261657;28;20103;-65
2021/06/29 07:41:49;;;;;;;1.35;1.00;;;20.30;99.90;;;;;;8194520;28;20093;-68
2021/06/29 07:45:50;;;;;;;1.25;1.15;;;20.50;99.90;;;;;;8194581;28;20023;-66
2021/06/29 07:49:51;;;;;;;1.38;1.00;;;20.50;99.90;;;;;;8194583;28;20053;-66
2021/06/29 07:53:51;;;;;;;1.60;1.10;;;20.50;99.90;;;;;;8261678;28;20019;-67
2021/06/29 07:57:53;;;;;;;1.45;0.90;;;20.80;99.90;;;;;;8192005;28;20024;-66
2021/06/29 08:01:54;;;;;;;1.23;1.10;;;20.70;99.90;;;;;;8194504;28;20278;-66
2021/06/29 08:05:54;;;;;;;1.25;1.08;;;21.00;99.90;;;;;;8186561;28;20044;-67
2021/06/29 08:09:56;;;;;;;2.28;1.13;;;21.10;99.90;;;;;;8179333;28;20456;-67
2021/06/29 08:13:56;;;;;;;1.65;1.40;;;21.40;99.90;;;;;;8177758;28;20051;-64
2021/06/29 08:17:57;;;;;;;1.45;1.10;;;21.60;99.90;;;;;;8190611;29;20031;-63
2021/06/29 08:21:57;;;;;;;1.80;1.60;;;21.90;99.90;;;;;;8194814;28;20039;-64
2021/06/29 08:25:59;;;;;;;1.98;1.35;;;22.10;99.90;;;;;;8188589;28;20042;-63
2021/06/29 08:29:59;;;;;;;3.25;1.40;;;22.10;99.90;;;;;;8161996;28;20050;-64
2021/06/29 08:34:00;;;;;;;1.48;1.23;;;22.50;99.90;;;;;;8258006;28;20409;-64
2021/06/29 08:38:00;;;;;;;1.95;1.23;;;22.70;99.90;;;;;;8168703;28;20167;-64
2021/06/29 08:42:01;;;;;;;1.70;1.00;;;22.50;99.90;;;;;;8181629;28;20105;-64
2021/06/29 08:46:02;;;;;;;1.55;1.00;;;22.60;99.90;;;;;;8218516;28;20042;-63
2021/06/29 08:50:05;;;;;;;1.23;0.90;;;22.90;99.90;;;;;;8177552;28;20088;-64
2021/06/29 08:54:06;;;;;;;1.10;1.00;;;23.10;99.90;;;;;;8177846;28;20023;-64
2021/06/29 08:58:07;;;;;;;1.23;1.10;;;23.10;99.90;;;;;;8177498;28;20054;-63
2021/06/29 09:02:07;;;;;;;3.17;1.00;;;23.20;99.90;;;;;;8250895;28;20027;-64
2021/06/29 09:06:08;;;;;;;1.38;1.10;;;23.20;99.90;;;;;;8183067;28;20696;-63
2021/06/29 09:10:10;;;;;;;1.33;1.00;;;23.40;99.90;;;;;;8233335;28;20054;-64
2021/06/29 09:14:13;;;;;;;3.08;0.90;;;24.20;99.90;;;;;;8183990;28;21353;-63
2021/06/29 09:18:23;;;;;;;1.13;0.90;;;24.60;99.90;;;;;;8173958;28;20023;-63
2021/06/29 09:22:29;;;;;;;1.10;1.00;;;24.80;99.90;;;;;;8259842;28;20061;-64
2021/06/29 09:26:36;;;;;;;0.85;0.82;;;24.90;99.90;;;;;;8171473;28;20024;-64
2021/06/29 09:30:43;;;;;;;1.10;1.00;;;24.90;99.90;;;;;;8177253;28;20110;-62
2021/06/29 09:35:02;;;;;;;1.30;1.10;;;24.60;99.90;;;;;;8189492;28;20015;-61
2021/06/29 09:39:08;;;;;;;2.53;1.15;;;24.10;99.90;;;;;;8183773;28;20714;-61
2021/06/29 09:43:10;;;;;;;1.55;1.10;;;24.40;99.90;;;;;;8176913;28;20051;-61
2021/06/29 09:47:24;;;;;;;2.53;0.98;;;24.50;99.90;;;;;;8177712;28;20031;-61
2021/06/29 09:51:29;;;;;;;0.93;0.80;;;24.40;99.90;;;;;;8176461;29;20031;-62
2021/06/29 09:55:40;;;;;;;2.25;0.95;;;24.50;99.90;;;;;;8184816;28;20027;-62
2021/06/29 09:59:43;;;;;;;1.30;1.00;;;24.90;99.90;;;;;;8169791;28;20031;-62
2021/06/29 10:03:45;;;;;;;1.13;0.80;;;25.20;99.90;;;;;;8189189;28;20029;-62
2021/06/29 10:07:45;;;;;;;1.60;1.08;;;25.30;99.90;;;;;;8195818;28;20417;-62
2021/06/29 10:11:52;;;;;;;3.00;0.93;;;25.30;99.90;;;;;;8290810;23;20055;-65
2021/06/29 10:15:52;;;;;;;1.65;1.00;;;25.20;99.90;;;;;;8386820;28;20040;-64
2021/06/29 10:24:14;;;;;;;1.08;0.90;;;25.10;99.90;;;;;;8375976;28;20127;-63
2021/06/29 10:28:17;;;;;;;3.50;1.10;;;25.50;99.90;;;;;;8361030;28;20028;-66
2021/06/29 10:32:18;;;;;;;0.80;0.80;;;25.80;99.90;;;;;;8386811;28;20051;-64
2021/06/29 10:36:20;;;;;;;0.70;0.70;;;25.70;99.90;;;;;;8389562;28;20120;-65
2021/06/29 10:40:21;;;;;;;0.80;0.70;;;25.50;99.90;;;;;;8370927;28;20033;-63
2021/06/29 10:44:22;;;;;;;1.15;1.00;;;25.30;99.90;;;;;;8376695;28;20039;-65
2021/06/29 10:48:26;;;;;;;1.67;0.80;;;25.70;99.90;;;;;;8363964;28;20394;-64
2021/06/29 10:52:27;;;;;;;1.65;0.70;;;25.80;99.90;;;;;;8346225;28;20029;-64
2021/06/29 10:56:54;;;;;;;1.33;1.10;;;25.90;99.90;;;;;;8332206;28;20390;-65
2021/06/29 11:00:55;;;;;;;4.40;0.95;;;26.20;99.90;;;;;;8381211;28;20047;-65
2021/06/29 11:05:02;;;;;;;1.00;0.90;;;26.70;99.90;;;;;;8398606;28;20085;-65
2021/06/29 11:09:04;;;;;;;1.60;0.80;;;27.30;99.90;;;;;;8398166;28;20111;-65
2021/06/29 11:13:08;;;;;;;1.13;0.85;;;27.80;99.90;;;;;;8369012;28;20026;-65
2021/06/29 11:17:09;;;;;;;2.03;1.05;;;27.80;99.90;;;;;;8327898;28;20025;-66
2021/06/29 11:21:32;;;;;;;2.05;1.00;;;27.40;99.90;;;;;;8368635;28;20075;-64
2021/06/29 11:25:37;;;;;;;0.93;0.77;;;27.50;99.90;;;;;;8334060;28;20026;-65
2021/06/29 11:29:39;;;;;;;1.27;0.80;;;28.00;99.90;;;;;;8359820;28;20017;-67
2021/06/29 11:34:07;;;;;;;1.40;0.95;;;28.20;99.90;;;;;;8370798;28;20405;-66
2021/06/29 11:38:09;;;;;;;0.95;0.85;;;28.20;99.90;;;;;;8394396;28;20028;-65
2021/06/29 11:42:20;;;;;;;1.70;0.75;;;28.90;99.90;;;;;;8389513;28;20491;-64
2021/06/29 11:46:46;;;;;;;2.92;1.27;;;28.40;99.90;;;;;;8347696;28;20379;-66
2021/06/29 11:50:47;;;;;;;0.95;0.90;;;27.30;99.90;;;;;;8386182;28;20035;-66
2021/06/29 11:54:56;;;;;;;1.77;0.80;;;26.90;99.90;;;;;;8373590;28;20116;-65
2021/06/29 11:58:56;;;;;;;1.08;0.90;;;28.00;99.90;;;;;;8362223;28;20025;-66
2021/06/29 12:03:07;;;;;;;1.15;1.02;;;29.80;97.70;;;;;;8335239;28;20047;-65
2021/06/29 12:07:08;;;;;;;0.75;0.70;;;29.80;96.50;;;;;;8395165;28;20016;-66
2021/06/29 12:11:09;;;;;;;2.40;0.98;;;30.20;97.20;;;;;;8371803;28;20032;-66
2021/06/29 12:15:27;;;;;;;1.10;1.00;;;31.30;96.10;;;;;;8395889;28;20059;-66
2021/06/29 12:19:28;;;;;;;1.00;1.00;;;31.50;93.70;;;;;;8393479;28;20025;-66
2021/06/29 12:23:32;;;;;;;1.48;0.88;;;32.40;92.30;;;;;;8350459;28;20091;-67
2021/06/29 12:27:32;;;;;;;1.00;0.90;;;31.80;88.50;;;;;;8371529;28;20024;-65
2021/06/29 12:31:33;;;;;;;2.05;1.00;;;30.00;90.60;;;;;;8361678;28;20092;-66
2021/06/29 12:35:34;;;;;;;1.00;0.90;;;28.80;92.40;;;;;;8369827;28;20055;-66
2021/06/29 12:39:34;;;;;;;1.20;0.93;;;27.90;96.00;;;;;;8335174;28;20036;-66
2021/06/29 12:43:46;;;;;;;1.15;1.05;;;27.00;97.50;;;;;;8387343;28;20021;-65
2021/06/29 12:47:59;;;;;;;1.10;1.00;;;26.30;99.90;;;;;;8373507;28;20180;-66
2021/06/29 12:52:12;;;;;;;1.20;1.10;;;25.70;99.90;;;;;;8373189;28;20036;-64
2021/06/29 12:56:19;;;;;;;1.55;1.10;;;25.20;99.90;;;;;;8328348;28;20033;-64
2021/06/29 13:00:19;;;;;;;1.95;1.30;;;24.60;99.90;;;;;;8335136;28;20028;-65
2021/06/29 13:04:23;;;;;;;1.20;1.10;;;24.30;99.90;;;;;;8373003;28;20486;-64
2021/06/29 13:08:23;;;;;;;1.20;1.08;;;23.90;99.90;;;;;;8366859;28;20028;-65
2021/06/29 13:12:30;;;;;;;2.25;1.10;;;23.60;99.90;;;;;;8370259;28;20040;-64
2021/06/29 13:16:31;;;;;;;1.45;1.23;;;22.90;99.90;;;;;;8387032;28;20502;-64
2021/06/29 13:20:33;;;;;;;3.45;0.77;;;22.60;99.90;;;;;;8360835;28;20033;-66
2021/06/29 13:24:46;;;;;;;2.08;0.80;;;22.20;99.90;;;;;;8344973;28;20037;-68
2021/06/29 13:28:46;;;;;;;5.07;1.05;;;19.60;99.90;;;;;;8370004;28;20025;-68
2021/06/29 13:32:49;;;;;;;2.08;0.80;;;17.20;99.90;;;;;;8361654;28;20039;-70
2021/06/29 13:36:51;;;;;;;4.88;0.82;;;14.70;99.90;;;;;;8361970;28;20021;-70
2021/06/29 13:40:51;;;;;;;1.52;0.73;;;12.80;99.90;;;;;;8365476;28;20055;-69
2021/06/29 13:44:57;;;;;;;2.20;0.95;;;12.30;99.90;;;;;;8382235;28;20107;-70
2021/06/29 13:48:58;;;;;;;2.88;1.20;;;12.60;99.90;;;;;;8356066;28;20666;-70
2021/06/29 13:53:10;;;;;;;1.38;1.00;;;12.70;99.90;;;;;;8330920;28;20029;-70
2021/06/29 13:57:20;;;;;;;2.88;1.40;;;12.90;99.90;;;;;;8325128;28;20025;-70
2021/06/29 14:01:25;;;;;;;2.10;1.00;;;13.20;99.90;;;;;;8380707;28;20027;-70
2021/06/29 14:05:43;;;;;;;1.98;1.02;;;13.50;99.90;;;;;;8368433;28;20422;-70
2021/06/29 14:09:43;;;;;;;1.60;0.82;;;13.60;99.90;;;;;;8332235;28;20029;-69
2021/06/29 14:13:57;;;;;;;1.83;1.10;;;13.80;99.90;;;;;;8353748;28;20479;-70
2021/06/29 14:17:57;;;;;;;2.00;1.65;;;14.00;99.90;;;;;;8358942;28;20021;-70
2021/06/29 14:21:59;;;;;;;3.67;1.10;;;14.30;99.90;;;;;;8335172;28;20078;-69
2021/06/29 14:26:00;;;;;;;2.55;0.95;;;14.80;99.90;;;;;;8385935;28;20044;-70
2021/06/29 14:30:00;;;;;;;2.30;1.00;;;15.50;99.90;;;;;;8368927;28;20039;-69
2021/06/29 14:34:02;;;;;;;1.90;0.80;;;16.30;99.90;;;;;;8371411;28;20021;-70
2021/06/29 14:38:03;;;;;;;2.05;0.80;;;16.70;99.90;;;;;;8380519;28;20024;-69
2021/06/29 14:42:04;;;;;;;1.10;0.73;;;17.30;99.90;;;;;;8390680;28;20025;-70
2021/06/29 14:46:05;;;;;;;0.80;0.60;;;17.80;99.90;;;;;;8358586;28;20386;-69
2021/06/29 14:50:06;;;;;;;0.60;0.60;;;17.70;99.90;;;;;;8386851;28;21942;-69
2021/06/29 14:54:06;;;;;;;0.93;0.70;;;17.40;99.90;;;;;;8364873;28;20581;-68
2021/06/29 14:58:08;;;;;;;0.70;0.60;;;17.00;99.90;;;;;;8377556;28;20369;-68
2021/06/29 15:02:09;;;;;;;1.25;0.70;;;16.80;99.90;;;;;;8371517;28;20031;-69
2021/06/29 15:06:09;;;;;;;2.45;1.98;;;17.20;99.90;;;;;;8377393;28;20259;-69
2021/06/29 15:10:13;;;;;;;4.18;1.20;;;17.50;99.90;;;;;;8360510;28;20037;-69
2021/06/29 15:14:13;;;;;;;0.65;0.63;;;17.80;99.90;;;;;;8371227;28;20486;-68
2021/06/29 15:18:14;;;;;;;0.75;0.70;;;17.80;99.90;;;;;;8372770;28;20108;-69
2021/06/29 15:22:14;;;;;;;2.03;0.85;;;17.30;99.90;;;;;;8375119;28;20059;-69
2021/06/29 15:26:15;;;;;;;1.33;0.70;;;17.10;99.90;;;;;;8370103;28;20024;-69
2021/06/29 15:30:16;;;;;;;1.27;0.90;;;17.30;99.90;;;;;;8373526;28;20032;-68
2021/06/29 15:34:17;;;;;;;0.60;0.60;;;17.60;99.90;;;;;;8378149;28;20050;-69
2021/06/29 15:38:18;;;;;;;1.10;0.77;;;17.50;99.90;;;;;;8359830;28;20487;-69
2021/06/29 15:42:18;;;;;;;3.90;0.90;;;17.20;99.90;;;;;;8377530;28;20036;-68
2021/06/29 15:46:19;;;;;;;1.88;1.10;;;17.20;99.90;;;;;;8359140;28;20044;-68
2021/06/29 15:50:21;;;;;;;0.90;0.80;;;17.20;99.90;;;;;;8369472;28;20670;-69
2021/06/29 15:54:22;;;;;;;1.05;0.80;;;17.20;99.90;;;;;;8337722;28;20048;-68
2021/06/29 15:58:22;;;;;;;0.60;0.60;;;17.10;99.90;;;;;;8365664;28;20017;-69
2021/06/29 16:02:23;;;;;;;2.92;0.93;;;16.90;99.90;;;;;;8371742;28;20037;-68
2021/06/29 16:06:24;;;;;;;1.38;0.70;;;16.80;99.90;;;;;;8378692;28;20486;-69
2021/06/29 16:10:24;;;;;;;1.20;0.93;;;16.80;99.90;;;;;;8407830;23;20036;-65
2021/06/29 16:14:25;;;;;;;2.58;1.08;;;16.80;99.90;;;;;;8360341;28;20037;-68
2021/06/29 16:18:30;;;;;;;1.08;1.00;;;16.60;99.90;;;;;;8361412;28;20059;-68
2021/06/29 16:22:30;;;;;;;0.90;0.80;;;16.50;99.90;;;;;;8362174;28;20120;-68
2021/06/29 16:26:31;;;;;;;1.48;1.10;;;16.30;99.90;;;;;;8361984;28;20055;-68
2021/06/29 16:30:33;;;;;;;3.40;1.33;;;16.20;99.90;;;;;;8344210;28;20545;-68
2021/06/29 16:34:34;;;;;;;2.60;1.20;;;16.10;99.90;;;;;;8378845;28;20048;-69
2021/06/29 16:38:40;;;;;;;1.50;1.25;;;16.10;99.90;;;;;;8377845;28;20024;-69
2021/06/29 16:42:40;;;;;;;1.63;1.25;;;16.20;99.90;;;;;;8353793;28;20033;-69
2021/06/29 16:46:41;;;;;;;2.42;1.20;;;16.20;99.90;;;;;;8362099;28;20257;-69
2021/06/29 16:50:42;;;;;;;2.65;1.30;;;16.30;99.90;;;;;;8372839;28;20129;-69
2021/06/29 16:54:43;;;;;;;3.83;1.40;;;16.50;99.90;;;;;;8346799;28;20226;-68
2021/06/29 16:58:47;;;;;;;1.40;1.27;;;16.50;99.90;;;;;;8353927;28;20029;-69
2021/06/29 17:02:49;;;;;;;1.38;1.10;;;16.60;99.90;;;;;;8382647;28;20025;-68
2021/06/29 17:06:50;;;;;;;1.90;1.40;;;16.70;99.90;;;;;;8352300;28;20111;-70
2021/06/29 17:10:51;;;;;;;2.15;1.38;;;16.90;99.90;;;;;;8377924;28;20036;-69
2021/06/29 17:14:55;;;;;;;1.63;1.30;;;17.10;99.90;;;;;;8380964;28;20024;-68
2021/06/29 17:18:56;;;;;;;1.20;1.10;;;17.50;99.90;;;;;;8357791;28;20035;-70
2021/06/29 17:22:57;;;;;;;1.40;1.08;;;19.60;99.90;;;;;;8367020;28;20070;-67
2021/06/29 17:26:58;;;;;;;2.28;1.10;;;19.10;99.90;;;;;;8362663;28;20036;-70
2021/06/29 17:30:58;;;;;;;1.48;1.10;;;18.50;99.90;;;;;;8361994;28;20025;-69
2021/06/29 17:34:59;;;;;;;1.30;1.20;;;18.10;99.90;;;;;;8383001;28;20037;-68
2021/06/29 17:39:00;;;;;;;1.67;1.30;;;17.90;99.90;;;;;;8391902;28;20024;-67
2021/06/29 17:43:01;;;;;;;1.83;1.23;;;17.60;99.90;;;;;;8392506;28;20498;-68
2021/06/29 17:47:02;;;;;;;1.10;0.90;;;17.30;99.90;;;;;;8375612;28;20078;-68
2021/06/29 17:51:03;;;;;;;3.60;2.03;;;17.20;99.90;;;;;;8371239;28;20040;-68
2021/06/29 17:55:05;;;;;;;2.58;1.63;;;17.30;99.90;;;;;;8366399;28;20102;-68
2021/06/29 17:59:05;;;;;;;3.03;1.52;;;17.30;99.90;;;;;;8367125;28;20167;-69
2021/06/29 18:03:06;;;;;;;2.22;1.30;;;17.10;99.90;;;;;;8385873;28;20025;-68
2021/06/29 18:07:07;;;;;;;2.30;1.20;;;16.90;99.90;;;;;;8366286;28;20123;-70
2021/06/29 18:11:07;;;;;;;1.90;1.67;;;16.70;99.90;;;;;;8362060;28;20098;-68
2021/06/29 18:15:09;;;;;;;2.30;1.73;;;16.70;99.90;;;;;;8376523;28;20520;-69
2021/06/29 18:19:10;;;;;;;2.22;1.77;;;16.50;99.90;;;;;;8376092;28;20625;-68
2021/06/29 18:23:10;;;;;;;1.60;1.33;;;16.60;99.90;;;;;;8370066;28;20024;-68
2021/06/29 18:27:11;;;;;;;9.90;4.15;;;16.60;99.90;;;;;;8373873;28;20118;-71
2021/06/29 18:31:12;;;;;;;2.75;1.40;;;16.40;99.90;;;;;;8385058;28;20054;-69
2021/06/29 18:35:12;;;;;;;2.17;1.38;;;16.30;99.90;;;;;;8376683;28;20025;-69
2021/06/29 18:39:13;;;;;;;4.35;1.60;;;16.20;99.90;;;;;;8391182;28;20516;-69
2021/06/29 18:43:13;;;;;;;2.38;1.58;;;16.30;99.90;;;;;;8391227;28;20029;-70
2021/06/29 18:47:15;;;;;;;1.70;1.50;;;16.30;99.90;;;;;;8390931;28;20024;-69
2021/06/29 18:51:16;;;;;;;2.13;1.77;;;16.20;99.90;;;;;;8391360;28;20017;-69
2021/06/29 18:55:20;;;;;;;3.63;1.70;;;16.10;99.90;;;;;;8383281;28;20036;-69
2021/06/29 18:59:20;;;;;;;1.90;1.52;;;16.20;99.90;;;;;;8391122;28;20430;-69
2021/06/29 19:03:21;;;;;;;4.30;2.10;;;16.20;99.90;;;;;;8390275;28;20102;-69
2021/06/29 19:07:21;;;;;;;1.60;1.40;;;16.10;99.90;;;;;;8360024;28;20032;-68
2021/06/29 19:11:25;;;;;;;3.85;1.77;;;16.00;99.90;;;;;;8358214;28;20032;-68
2021/06/29 19:15:28;;;;;;;2.80;1.70;;;16.00;99.90;;;;;;8326691;28;20026;-68
2021/06/29 19:19:28;;;;;;;2.85;1.60;;;16.10;99.90;;;;;;8327541;28;20028;-67
2021/06/29 19:23:29;;;;;;;1.95;1.63;;;16.00;99.90;;;;;;8332493;28;20025;-68
2021/06/29 19:27:30;;;;;;;3.90;2.25;;;15.90;99.90;;;;;;8328198;28;20040;-68
2021/06/29 19:31:32;;;;;;;2.90;2.20;;;15.90;99.90;;;;;;8333127;28;20108;-69
2021/06/29 19:35:33;;;;;;;4.57;2.40;;;15.90;99.90;;;;;;8340474;28;20020;-69
2021/06/29 19:39:34;;;;;;;4.53;2.22;;;15.90;99.90;;;;;;8350963;28;20394;-66
2021/06/29 19:43:34;;;;;;;6.40;2.53;;;15.80;99.90;;;;;;8329355;28;20026;-67
2021/06/29 19:47:35;;;;;;;4.18;2.08;;;15.70;99.90;;;;;;8362373;28;20067;-66
2021/06/29 19:51:36;;;;;;;3.97;2.30;;;15.80;99.90;;;;;;8367144;28;20040;-67
2021/06/29 19:55:37;;;;;;;3.33;2.35;;;15.60;99.90;;;;;;8331586;28;20018;-67
2021/06/29 19:59:37;;;;;;;3.63;2.50;;;15.50;99.90;;;;;;8383507;28;20547;-67
2021/06/29 20:03:38;;;;;;;6.50;2.45;;;15.60;99.90;;;;;;8374933;28;20123;-66
2021/06/29 20:07:39;;;;;;;2.58;2.10;;;15.80;99.90;;;;;;8384071;28;20107;-66
2021/06/29 20:11:43;;;;;;;3.53;2.33;;;15.80;99.90;;;;;;8360274;28;20149;-66
2021/06/29 20:15:43;;;;;;;3.00;2.70;;;15.70;99.90;;;;;;8371657;28;20020;-66
2021/06/29 20:19:44;;;;;;;3.80;2.92;;;15.80;99.90;;;;;;8392035;28;20020;-66
2021/06/29 20:23:45;;;;;;;2.75;2.55;;;15.70;99.90;;;;;;8359741;28;20467;-66
2021/06/29 20:27:45;;;;;;;4.30;3.20;;;15.70;99.90;;;;;;8366555;28;20076;-66
2021/06/29 20:31:46;;;;;;;4.25;3.05;;;15.70;99.90;;;;;;8362282;28;20021;-66
2021/06/29 20:35:47;;;;;;;3.20;2.90;;;15.70;99.90;;;;;;8389013;28;20108;-66
2021/06/29 20:39:51;;;;;;;9.15;3.30;;;15.60;99.90;;;;;;8381060;28;20103;-67
2021/06/29 20:43:52;;;;;;;6.72;3.35;;;15.70;99.90;;;;;;8346051;28;20021;-66
2021/06/29 20:47:53;;;;;;;4.20;3.40;;;15.70;99.90;;;;;;8347086;28;20032;-66
2021/06/29 20:51:54;;;;;;;4.32;2.78;;;15.80;99.90;;;;;;8327441;28;20029;-67
2021/06/29 20:55:54;;;;;;;3.92;3.10;;;15.80;99.90;;;;;;8310877;28;20501;-66
2021/06/29 20:59:55;;;;;;;4.50;2.70;;;15.70;99.90;;;;;;8328677;28;20053;-66
2021/06/29 21:03:55;;;;;;;3.33;2.72;;;15.70;99.90;;;;;;8352085;28;20502;-66
2021/06/29 21:07:56;;;;;;;5.40;2.88;;;15.80;99.90;;;;;;8394165;28;20115;-67
2021/06/29 21:11:57;;;;;;;6.38;2.85;;;15.70;99.90;;;;;;8394307;28;20035;-66
2021/06/29 21:15:57;;;;;;;3.53;2.80;;;15.70;99.90;;;;;;8394077;28;20024;-66
2021/06/29 21:19:58;;;;;;;6.78;3.10;;;15.70;99.90;;;;;;8394133;28;20028;-66
2021/06/29 21:23:59;;;;;;;3.90;2.63;;;15.70;99.90;;;;;;8359637;28;20075;-66
2021/06/29 21:27:59;;;;;;;4.80;2.50;;;15.80;99.90;;;;;;8359718;28;20108;-66